createdAt,value
2022-12-04T00:00:34.490Z,41.67
2022-12-04T00:03:01.816Z,39.63
2022-12-04T00:05:29.002Z,47.57
2022-12-04T00:07:56.252Z,36.57
2022-12-04T00:10:23.669Z,35.50
2022-12-04T00:12:50.878Z,31.20
2022-12-04T00:15:26.457Z,36.20
2022-12-04T00:17:54.471Z,41.50
2022-12-04T00:20:22.912Z,38.63
2022-12-04T00:22:50.189Z,34.63
2022-12-04T00:25:17.533Z,33.73
2022-12-04T00:27:44.726Z,37.30
2022-12-04T00:30:12.410Z,47.80
2022-12-04T00:32:39.596Z,39.53
2022-12-04T00:35:07.264Z,36.40
2022-12-04T00:37:34.447Z,32.93
2022-12-04T00:40:01.856Z,37.77
2022-12-04T00:42:29.106Z,39.07
2022-12-04T00:44:56.245Z,44.60
2022-12-04T00:47:23.439Z,48.83
2022-12-04T00:49:50.656Z,32.07
2022-12-04T00:52:17.842Z,35.37
2022-12-04T00:54:45.029Z,35.27
2022-12-04T00:57:12.194Z,32.27
2022-12-04T00:59:39.413Z,34.90
2022-12-04T01:02:06.698Z,35.90
2022-12-04T01:04:33.829Z,31.50
2022-12-04T01:07:04.924Z,31.37
2022-12-04T01:09:33.023Z,31.07
2022-12-04T01:12:00.212Z,28.13
2022-12-04T01:14:27.411Z,39.23
2022-12-04T01:16:54.871Z,34.90
2022-12-04T01:19:22.376Z,37.70
2022-12-04T01:21:49.563Z,32.97
2022-12-04T01:24:16.862Z,26.63
2022-12-04T01:26:44.060Z,30.43
2022-12-04T01:29:11.231Z,32.63
2022-12-04T01:31:38.467Z,30.50
2022-12-04T01:34:05.706Z,33.10
2022-12-04T01:36:32.844Z,30.07
2022-12-04T01:38:59.998Z,32.67
2022-12-04T01:41:29.926Z,28.33
2022-12-04T01:44:15.544Z,33.90
2022-12-04T01:46:45.675Z,37.80
2022-12-04T01:49:19.748Z,31.73
2022-12-04T01:51:52.725Z,31.70
2022-12-04T01:54:32.770Z,36.70
2022-12-04T01:57:06.302Z,32.03
2022-12-04T01:59:42.868Z,27.13
2022-12-04T02:02:16.010Z,27.30
2022-12-04T02:04:44.757Z,29.57
2022-12-04T02:07:12.302Z,24.93
2022-12-04T02:09:40.705Z,31.50
2022-12-04T02:12:25.962Z,27.57
2022-12-04T02:14:58.859Z,26.00
2022-12-04T02:17:36.766Z,27.47
2022-12-04T02:20:33.528Z,27.60
2022-12-04T02:23:18.852Z,25.90
2022-12-04T02:26:10.599Z,26.03
2022-12-04T02:28:43.197Z,32.87
2022-12-04T02:31:18.105Z,30.33
2022-12-04T02:33:58.465Z,28.63
2022-12-04T02:36:35.110Z,25.83
2022-12-04T02:39:13.774Z,35.13
2022-12-04T02:42:05.172Z,30.33
2022-12-04T02:44:41.068Z,28.53
2022-12-04T02:47:13.240Z,42.97
2022-12-04T02:50:12.636Z,32.53
2022-12-04T02:52:51.265Z,24.03
2022-12-04T02:55:42.365Z,28.33
2022-12-04T02:58:17.371Z,29.90
2022-12-04T03:00:47.207Z,29.60
2022-12-04T03:03:23.074Z,30.43
2022-12-04T03:05:53.283Z,26.40
2022-12-04T03:08:26.070Z,26.13
2022-12-04T03:10:56.725Z,27.40
2022-12-04T03:13:31.062Z,26.27
2022-12-04T03:16:18.608Z,26.80
2022-12-04T03:18:55.716Z,29.13
2022-12-04T03:21:27.930Z,26.30
2022-12-04T03:23:59.187Z,22.87
2022-12-04T03:26:32.534Z,27.50
2022-12-04T03:29:10.358Z,28.37
2022-12-04T03:31:45.539Z,23.07
2022-12-04T03:34:17.573Z,29.27
2022-12-04T03:37:00.745Z,26.07
2022-12-04T03:39:58.610Z,29.33
2022-12-04T03:42:40.995Z,26.70
2022-12-04T03:45:22.205Z,29.40
2022-12-04T03:48:00.843Z,24.07
2022-12-04T03:50:41.699Z,30.57
2022-12-04T03:53:18.642Z,27.37
2022-12-04T03:56:20.479Z,26.80
2022-12-04T03:58:52.425Z,24.43
2022-12-04T04:01:25.484Z,24.27
2022-12-04T04:03:56.333Z,24.67
2022-12-04T04:06:36.896Z,26.63
2022-12-04T04:09:10.656Z,24.63
2022-12-04T04:11:48.770Z,21.43
2022-12-04T04:14:42.391Z,20.97
2022-12-04T04:17:37.969Z,21.23
2022-12-04T04:20:47.975Z,21.73
2022-12-04T04:23:36.423Z,21.80
2022-12-04T04:26:04.251Z,20.27
2022-12-04T04:28:36.086Z,20.47
2022-12-04T04:31:32.982Z,21.20
2022-12-04T04:34:39.853Z,20.60
2022-12-04T04:37:32.878Z,21.23
2022-12-04T04:40:35.737Z,25.50
2022-12-04T04:43:09.865Z,26.23
2022-12-04T04:45:47.159Z,22.03
2022-12-04T04:48:25.640Z,22.67
2022-12-04T04:50:53.432Z,22.87
2022-12-04T04:53:26.767Z,23.80
2022-12-04T04:55:54.188Z,22.73
2022-12-04T04:58:21.649Z,20.17
2022-12-04T05:01:08.729Z,24.27
2022-12-04T05:03:36.138Z,23.00
2022-12-04T05:06:03.850Z,23.17
2022-12-04T05:08:30.993Z,22.63
2022-12-04T05:10:58.222Z,24.83
2022-12-04T05:13:25.618Z,22.07
2022-12-04T05:16:04.754Z,25.73
2022-12-04T05:18:33.047Z,23.23
2022-12-04T05:21:04.513Z,24.90
2022-12-04T05:23:31.636Z,26.53
2022-12-04T05:26:03.293Z,25.90
2022-12-04T05:28:30.550Z,22.30
2022-12-04T05:30:59.829Z,24.40
2022-12-04T05:33:27.130Z,21.67
2022-12-04T05:36:06.097Z,22.37
2022-12-04T05:38:35.257Z,22.67
2022-12-04T05:41:04.946Z,21.50
2022-12-04T05:43:32.909Z,25.00
2022-12-04T05:46:08.728Z,21.83
2022-12-04T05:48:36.230Z,22.97
2022-12-04T05:51:11.080Z,25.50
2022-12-04T05:53:39.106Z,38.60
2022-12-04T05:56:07.304Z,26.33
2022-12-04T05:58:38.293Z,25.17
2022-12-04T06:01:15.654Z,31.17
2022-12-04T06:03:43.132Z,32.40
2022-12-04T06:06:22.046Z,32.10
2022-12-04T06:08:51.708Z,36.60
2022-12-04T06:11:25.126Z,35.27
2022-12-04T06:13:53.179Z,29.83
2022-12-04T06:16:26.503Z,36.80
2022-12-04T06:18:59.797Z,33.60
2022-12-04T06:21:29.190Z,26.83
2022-12-04T06:23:56.495Z,29.00
2022-12-04T06:26:24.253Z,31.57
2022-12-04T06:28:56.211Z,26.67
2022-12-04T06:31:24.764Z,28.93
2022-12-04T06:33:54.174Z,31.10
2022-12-04T06:36:23.155Z,29.73
2022-12-04T06:38:51.639Z,34.47
2022-12-04T06:41:21.330Z,25.17
2022-12-04T06:43:48.825Z,31.77
2022-12-04T06:46:22.673Z,29.03
2022-12-04T06:48:50.507Z,30.63
2022-12-04T06:51:26.485Z,33.13
2022-12-04T06:53:53.953Z,32.33
2022-12-04T06:56:23.536Z,34.23
2022-12-04T06:58:53.236Z,40.17
2022-12-04T07:01:23.188Z,28.77
2022-12-04T07:03:51.923Z,30.67
2022-12-04T07:06:27.523Z,30.50
2022-12-04T07:08:58.569Z,30.80
2022-12-04T07:11:25.982Z,25.53
2022-12-04T07:13:54.767Z,23.20
2022-12-04T07:16:25.286Z,23.83
2022-12-04T07:18:56.519Z,27.90
2022-12-04T07:21:29.754Z,28.23
2022-12-04T07:24:01.308Z,22.07
2022-12-04T07:26:30.043Z,26.97
2022-12-04T07:28:58.513Z,23.33
2022-12-04T07:31:28.209Z,21.87
2022-12-04T07:33:56.068Z,23.27
2022-12-04T07:36:24.001Z,18.87
2022-12-04T07:38:51.659Z,21.47
2022-12-04T07:41:19.478Z,21.80
2022-12-04T07:43:47.264Z,28.53
2022-12-04T07:46:19.847Z,53.57
2022-12-04T07:48:47.109Z,36.47
2022-12-04T07:51:22.768Z,82.13
2022-12-04T07:53:51.643Z,40.93
2022-12-04T07:56:19.214Z,28.97
2022-12-04T07:58:46.978Z,41.37
2022-12-04T08:01:24.121Z,43.90
2022-12-04T08:03:54.991Z,55.13
2022-12-04T08:06:24.295Z,22.47
2022-12-04T08:08:52.451Z,26.57
2022-12-04T08:11:22.643Z,28.13
2022-12-04T08:13:57.619Z,33.40
2022-12-04T08:16:26.326Z,41.93
2022-12-04T08:18:55.879Z,30.60
2022-12-04T08:21:25.660Z,45.70
2022-12-04T08:23:54.985Z,63.57
2022-12-04T08:26:24.186Z,42.20
2022-12-04T08:28:56.026Z,75.30
2022-12-04T08:31:26.386Z,50.57
2022-12-04T08:33:56.847Z,137.73
2022-12-04T08:36:24.804Z,74.93
2022-12-04T08:38:52.580Z,40.87
2022-12-04T08:41:24.186Z,52.97
2022-12-04T08:43:54.530Z,77.60
2022-12-04T08:46:22.620Z,90.87
2022-12-04T08:48:49.790Z,88.07
2022-12-04T08:51:20.526Z,47.13
2022-12-04T08:53:47.922Z,37.70
2022-12-04T08:56:15.091Z,38.07
2022-12-04T08:58:42.238Z,66.80
2022-12-04T09:01:14.220Z,41.00
2022-12-04T09:03:42.377Z,25.23
2022-12-04T09:06:12.012Z,45.30
2022-12-04T09:08:39.253Z,38.17
2022-12-04T09:11:08.757Z,25.03
2022-12-04T09:13:36.619Z,21.90
2022-12-04T09:16:07.649Z,24.67
2022-12-04T09:18:36.155Z,21.73
2022-12-04T09:21:06.322Z,26.17
2022-12-04T09:23:35.524Z,21.53
2022-12-04T09:26:03.368Z,18.90
2022-12-04T09:28:30.595Z,19.47
2022-12-04T09:31:04.615Z,24.17
2022-12-04T09:33:32.855Z,43.30
2022-12-04T09:36:01.608Z,25.83
2022-12-04T09:38:29.782Z,27.63
2022-12-04T09:41:07.134Z,23.00
2022-12-04T09:43:43.702Z,24.20
2022-12-04T09:46:19.165Z,20.47
2022-12-04T09:48:48.577Z,24.37
2022-12-04T09:51:21.107Z,19.03
2022-12-04T09:53:51.394Z,22.67
2022-12-04T09:56:19.861Z,30.70
2022-12-04T09:58:52.248Z,27.93
2022-12-04T10:01:32.015Z,18.07
2022-12-04T10:04:05.631Z,22.03
2022-12-04T10:06:43.077Z,20.60
2022-12-04T10:09:28.129Z,22.43
2022-12-04T10:12:22.186Z,18.67
2022-12-04T10:15:26.168Z,19.40
2022-12-04T10:17:59.495Z,18.10
2022-12-04T10:20:50.651Z,17.50
2022-12-04T10:23:41.857Z,16.90
2022-12-04T10:26:16.413Z,17.30
2022-12-04T10:28:54.987Z,22.57
2022-12-04T10:31:24.532Z,18.50
2022-12-04T10:33:53.459Z,20.03
2022-12-04T10:36:23.557Z,24.40
2022-12-04T10:39:00.107Z,29.07
2022-12-04T10:41:39.132Z,22.27
2022-12-04T10:44:06.337Z,23.77
2022-12-04T10:46:35.264Z,19.00
2022-12-04T10:49:12.395Z,29.57
2022-12-04T10:51:42.235Z,25.17
2022-12-04T10:54:25.234Z,25.47
2022-12-04T10:57:00.153Z,20.90
2022-12-04T10:59:28.346Z,36.30
2022-12-04T11:02:10.879Z,27.47
2022-12-04T11:04:38.484Z,26.70
2022-12-04T11:07:27.741Z,22.70
2022-12-04T11:10:17.442Z,23.07
2022-12-04T11:12:55.586Z,21.03
2022-12-04T11:15:23.820Z,22.87
2022-12-04T11:17:52.703Z,22.47
2022-12-04T11:20:24.419Z,22.37
2022-12-04T11:22:57.253Z,20.50
2022-12-04T11:25:27.275Z,23.23
2022-12-04T11:27:56.953Z,21.30
2022-12-04T11:30:36.892Z,21.23
2022-12-04T11:33:15.335Z,39.90
2022-12-04T11:35:42.738Z,28.63
2022-12-04T11:38:16.216Z,20.57
2022-12-04T11:40:52.778Z,20.50
2022-12-04T11:43:20.769Z,26.73
2022-12-04T11:46:02.776Z,26.90
2022-12-04T11:48:31.578Z,33.60
2022-12-04T11:51:30.766Z,26.40
2022-12-04T11:54:10.420Z,25.03
2022-12-04T11:56:47.036Z,25.60
2022-12-04T11:59:24.949Z,26.00
2022-12-04T12:02:27.344Z,26.10
2022-12-04T12:05:03.385Z,27.87
2022-12-04T12:07:45.630Z,29.87
2022-12-04T12:10:21.711Z,27.93
2022-12-04T12:13:04.021Z,24.77
2022-12-04T12:15:49.403Z,24.13
2022-12-04T12:18:35.043Z,24.77
2022-12-04T12:21:23.359Z,28.23
2022-12-04T12:24:15.204Z,24.73
2022-12-04T12:27:01.102Z,25.87
2022-12-04T12:30:01.657Z,25.83
2022-12-04T12:32:47.230Z,22.40
2022-12-04T12:35:29.913Z,24.47
2022-12-04T12:38:03.960Z,24.37
2022-12-04T12:40:44.746Z,25.83
2022-12-04T12:43:39.213Z,27.03
2022-12-04T12:46:15.593Z,28.27
2022-12-04T12:49:07.006Z,24.60
2022-12-04T12:51:52.760Z,26.43
2022-12-04T12:54:38.673Z,25.30
2022-12-04T12:57:24.023Z,24.23
2022-12-04T12:59:58.398Z,23.13
2022-12-04T13:02:30.417Z,21.90
2022-12-04T13:05:01.563Z,22.40
2022-12-04T13:08:02.944Z,22.60
2022-12-04T13:10:39.969Z,27.60
2022-12-04T13:13:14.031Z,23.17
2022-12-04T13:15:48.761Z,28.80
2022-12-04T13:18:32.810Z,23.63
2022-12-04T13:21:06.269Z,31.77
2022-12-04T13:24:10.536Z,31.10
2022-12-04T13:27:03.501Z,26.00
2022-12-04T13:29:54.785Z,22.87
2022-12-04T13:32:51.576Z,21.50
2022-12-04T13:35:27.466Z,20.50
2022-12-04T13:38:07.083Z,24.57
2022-12-04T13:40:43.869Z,73.77
2022-12-04T13:43:29.041Z,25.97
2022-12-04T13:46:00.126Z,21.10
2022-12-04T13:48:40.952Z,26.50
2022-12-04T13:51:35.033Z,23.70
2022-12-04T13:54:24.436Z,22.60
2022-12-04T13:56:55.493Z,36.10
2022-12-04T13:59:24.602Z,22.10
2022-12-04T14:01:57.508Z,18.73
2022-12-04T14:04:46.643Z,18.67
2022-12-04T14:07:33.509Z,16.93
2022-12-04T14:10:16.786Z,18.30
2022-12-04T14:12:56.964Z,19.97
2022-12-04T14:15:27.375Z,20.20
2022-12-04T14:18:09.179Z,21.57
2022-12-04T14:20:36.978Z,19.53
2022-12-04T14:23:33.884Z,20.00
2022-12-04T14:26:03.084Z,33.67
2022-12-04T14:28:38.720Z,24.07
2022-12-04T14:31:09.089Z,23.97
2022-12-04T14:33:52.225Z,25.57
2022-12-04T14:36:25.493Z,23.87
2022-12-04T14:39:24.788Z,24.67
2022-12-04T14:41:56.896Z,25.37
2022-12-04T14:44:29.426Z,28.33
2022-12-04T14:47:35.170Z,24.87
2022-12-04T14:50:20.688Z,23.87
2022-12-04T14:52:50.950Z,25.43
2022-12-04T14:55:46.738Z,28.30
2022-12-04T14:58:30.441Z,30.53
2022-12-04T15:01:04.190Z,25.53
2022-12-04T15:03:36.404Z,24.37
2022-12-04T15:06:11.883Z,26.77
2022-12-04T15:08:49.490Z,31.07
2022-12-04T15:11:39.718Z,37.57
2022-12-04T15:14:14.010Z,32.57
2022-12-04T15:16:41.579Z,45.80
2022-12-04T15:19:21.162Z,35.37
2022-12-04T15:21:48.963Z,39.53
2022-12-04T15:24:24.203Z,39.93
2022-12-04T15:26:55.103Z,46.20
2022-12-04T15:29:31.527Z,42.77
2022-12-04T15:32:02.847Z,39.43
2022-12-04T15:34:46.086Z,44.03
2022-12-04T15:37:19.663Z,49.10
2022-12-04T15:39:48.498Z,52.57
2022-12-04T15:42:24.643Z,43.33
2022-12-04T15:45:08.706Z,47.90
2022-12-04T15:47:53.357Z,45.10
2022-12-04T15:50:23.433Z,44.10
2022-12-04T15:53:06.513Z,46.60
2022-12-04T15:55:37.867Z,48.67
2022-12-04T15:58:22.430Z,60.43
2022-12-04T16:00:59.111Z,41.80
2022-12-04T16:03:34.540Z,46.33
2022-12-04T16:06:07.913Z,48.87
2022-12-04T16:08:40.037Z,53.67
2022-12-04T16:11:17.904Z,46.27
2022-12-04T16:13:45.247Z,44.07
2022-12-04T16:16:18.005Z,49.47
2022-12-04T16:18:46.282Z,50.47
2022-12-04T16:21:19.291Z,49.63
2022-12-04T16:23:46.432Z,41.80
2022-12-04T16:26:15.664Z,38.13
2022-12-04T16:28:42.850Z,38.37
2022-12-04T16:31:13.967Z,30.67
2022-12-04T16:33:41.168Z,36.43
2022-12-04T16:36:10.891Z,39.27
2022-12-04T16:38:38.059Z,41.03
2022-12-04T16:41:05.510Z,53.10
2022-12-04T16:43:32.677Z,36.20
2022-12-04T16:46:01.450Z,31.23
2022-12-04T16:48:29.606Z,34.27
2022-12-04T16:50:56.763Z,29.97
2022-12-04T16:53:23.947Z,29.53
2022-12-04T16:55:52.721Z,23.30
2022-12-04T16:58:20.542Z,31.53
2022-12-04T17:00:56.022Z,24.73
2022-12-04T17:03:28.982Z,24.77
2022-12-04T17:05:56.939Z,23.67
2022-12-04T17:08:25.190Z,22.13
2022-12-04T17:10:52.990Z,20.47
2022-12-04T17:13:21.332Z,20.27
2022-12-04T17:15:48.829Z,21.20
2022-12-04T17:18:20.734Z,21.47
2022-12-04T17:20:48.779Z,21.03
2022-12-04T17:23:16.225Z,20.37
2022-12-04T17:25:43.458Z,20.73
2022-12-04T17:28:11.727Z,20.63
2022-12-04T17:30:38.899Z,20.00
2022-12-04T17:33:06.075Z,19.97
2022-12-04T17:35:33.226Z,20.20
2022-12-04T17:38:05.639Z,19.93
2022-12-04T17:40:33.671Z,19.67
2022-12-04T17:43:01.703Z,21.97
2022-12-04T17:45:28.941Z,19.80
2022-12-04T17:47:56.088Z,20.40
2022-12-04T17:50:23.273Z,20.50
2022-12-04T17:52:50.451Z,20.00
2022-12-04T17:55:17.901Z,20.20
2022-12-04T17:57:45.025Z,23.57
2022-12-04T18:00:12.414Z,22.20
2022-12-04T18:02:41.498Z,23.13
2022-12-04T18:05:09.775Z,26.33
2022-12-04T18:07:37.006Z,26.60
2022-12-04T18:10:04.762Z,21.07
2022-12-04T18:12:31.938Z,21.27
2022-12-04T18:14:59.179Z,19.00
2022-12-04T18:17:26.850Z,20.47
2022-12-04T18:19:54.137Z,30.73
2022-12-04T18:22:21.470Z,20.40
2022-12-04T18:24:49.745Z,21.83
2022-12-04T18:27:16.870Z,19.63
2022-12-04T18:29:44.066Z,23.00
2022-12-04T18:32:11.275Z,20.70
2022-12-04T18:34:38.473Z,20.70
2022-12-04T18:37:05.657Z,20.53
2022-12-04T18:39:32.815Z,19.93
2022-12-04T18:41:59.961Z,20.97
2022-12-04T18:44:27.174Z,21.87
2022-12-04T18:46:54.316Z,23.50
2022-12-04T18:49:21.478Z,26.70
2022-12-04T18:51:50.296Z,22.83
2022-12-04T18:54:20.734Z,23.50
2022-12-04T18:56:48.377Z,21.40
2022-12-04T18:59:25.342Z,18.83
2022-12-04T19:01:53.657Z,18.43
2022-12-04T19:04:23.427Z,18.33
2022-12-04T19:06:53.414Z,19.90
2022-12-04T19:09:40.791Z,18.50
2022-12-04T19:12:11.535Z,20.03
2022-12-04T19:14:39.627Z,23.07
2022-12-04T19:17:06.940Z,23.27
2022-12-04T19:19:34.214Z,22.30
2022-12-04T19:22:02.006Z,23.43
2022-12-04T19:24:29.711Z,24.17
2022-12-04T19:26:56.866Z,25.70
2022-12-04T19:29:24.050Z,24.47
2022-12-04T19:31:56.029Z,27.20
2022-12-04T19:34:26.395Z,26.60
2022-12-04T19:36:56.776Z,25.93
2022-12-04T19:39:23.945Z,26.50
2022-12-04T19:41:52.798Z,24.30
2022-12-04T19:47:10.427Z,21.63
2022-12-04T19:49:37.654Z,23.13
2022-12-04T19:52:05.458Z,22.67
2022-12-04T19:54:32.638Z,21.83
2022-12-04T19:56:59.823Z,20.23
2022-12-04T19:59:30.458Z,20.07
2022-12-04T20:02:00.576Z,21.47
2022-12-04T20:04:27.843Z,20.43
2022-12-04T20:06:55.284Z,28.83
2022-12-04T20:09:22.863Z,22.17
2022-12-04T20:11:50.103Z,23.20
2022-12-04T20:14:17.551Z,21.70
2022-12-04T20:16:44.932Z,23.43
2022-12-04T20:19:17.358Z,20.00
2022-12-04T20:21:46.081Z,21.70
2022-12-04T20:24:16.531Z,20.97
2022-12-04T20:26:45.197Z,24.93
2022-12-04T20:29:14.604Z,19.20
2022-12-04T20:31:44.609Z,19.37
2022-12-04T20:34:16.936Z,20.90
2022-12-04T20:36:45.582Z,32.10
2022-12-04T20:39:13.754Z,30.53
2022-12-04T20:41:41.275Z,19.70
2022-12-04T20:44:11.394Z,17.77
2022-12-04T20:46:39.943Z,18.90
2022-12-04T20:49:20.856Z,18.07
2022-12-04T20:51:51.053Z,19.90
2022-12-04T20:54:20.660Z,18.67
2022-12-04T20:56:49.147Z,22.53
2022-12-04T20:59:18.250Z,18.20
2022-12-04T21:01:45.594Z,20.07
2022-12-04T21:04:13.292Z,17.93
2022-12-04T21:06:41.718Z,16.63
2022-12-04T21:09:19.413Z,20.90
2022-12-04T21:11:54.413Z,15.93
2022-12-04T21:14:44.218Z,17.17
2022-12-04T21:17:16.576Z,17.70
2022-12-04T21:19:47.418Z,18.03
2022-12-04T21:22:15.089Z,17.70
2022-12-04T21:24:43.009Z,16.47
2022-12-04T21:27:15.687Z,21.40
2022-12-04T21:29:46.236Z,26.23
2022-12-04T21:32:13.430Z,18.27
2022-12-04T21:34:40.600Z,19.50
2022-12-04T21:37:07.748Z,19.37
2022-12-04T21:39:35.910Z,18.03
2022-12-04T21:42:22.203Z,26.17
2022-12-04T21:44:49.490Z,18.70
2022-12-04T21:47:16.730Z,16.70
2022-12-04T21:49:43.946Z,18.47
2022-12-04T21:52:11.123Z,18.40
2022-12-04T21:54:38.430Z,16.43
2022-12-04T21:57:05.586Z,28.27
2022-12-04T21:59:32.787Z,17.80
2022-12-04T22:02:00.539Z,17.73
2022-12-04T22:04:28.064Z,30.57
2022-12-04T22:06:55.207Z,22.70
2022-12-04T22:09:22.438Z,22.63
2022-12-04T22:11:49.585Z,22.67
2022-12-04T22:14:16.764Z,20.33
2022-12-04T22:16:44.008Z,16.70
2022-12-04T22:19:12.482Z,15.73
2022-12-04T22:21:40.264Z,17.10
2022-12-04T22:24:08.051Z,16.50
2022-12-04T22:26:35.183Z,15.93
2022-12-04T22:29:20.702Z,15.80
2022-12-04T22:31:50.502Z,15.63
2022-12-04T22:34:17.782Z,18.63
2022-12-04T22:36:44.942Z,16.97
2022-12-04T22:39:12.165Z,18.50
2022-12-04T22:41:39.359Z,18.37
2022-12-04T22:44:06.571Z,16.10
2022-12-04T22:46:34.267Z,16.33
2022-12-04T22:49:01.579Z,17.60
2022-12-04T22:51:29.102Z,16.67
2022-12-04T22:53:57.700Z,17.10
2022-12-04T22:56:30.484Z,16.50
2022-12-04T22:58:58.863Z,17.40
2022-12-04T23:01:28.825Z,18.57
2022-12-04T23:03:56.530Z,16.73
2022-12-04T23:06:26.188Z,18.50
2022-12-04T23:09:06.122Z,18.07
2022-12-04T23:11:34.223Z,18.20
2022-12-04T23:14:03.881Z,17.90
2022-12-04T23:16:32.905Z,17.03
2022-12-04T23:19:00.292Z,19.03
2022-12-04T23:21:28.116Z,16.63
2022-12-04T23:23:56.159Z,19.37
2022-12-04T23:26:32.675Z,17.57
2022-12-04T23:29:01.576Z,19.00
2022-12-04T23:31:29.624Z,19.73
2022-12-04T23:33:57.027Z,32.73
2022-12-04T23:36:24.771Z,21.43
2022-12-04T23:38:51.970Z,18.03
2022-12-04T23:41:19.503Z,18.17
2022-12-04T23:43:48.034Z,18.10
2022-12-04T23:46:18.303Z,17.67
2022-12-04T23:48:46.098Z,18.40
2022-12-04T23:51:15.896Z,16.33
2022-12-04T23:53:43.600Z,18.27
2022-12-04T23:56:14.756Z,18.10
2022-12-04T23:58:43.205Z,18.07
